Detroit, Michigan
Traffic Map
Current Weather Conditions
Detroit, Michigan
Broken Clouds
Broken Clouds

Feels Like: 7°
Wind Chill: Ceiling: 7700
Heat Index: Visibility: 15mi
Dew Point: Wind: 2mph
Humidity: 72% Direction: 140° (SE)
Pressure: 30.37in Gusts: 0mph
Raw Report DataCYQG 310700Z 14002KT 15SM FEW030 BKN077 M14/M18 A3037 RMK SC1AC5 SLP298
Traffic Incident Summary
Active as of:
Severity:
Category:
InformationThere was an issue retrieving the traffic information for this location. Please try a different location or try again shortly.
Advertisements
Track Severe Weather on mobile